This is the latest recevied weather packets stored in our database for station/object WV4O. If no packets are shown the sender has not sent any weather packets the latest 10 day(s).
| Time | Temp. | Humidity | Pressure | Rain* | Wind** | Luminosity | Snow |
|---|---|---|---|---|---|---|---|
| 1777842937 | 20.56° C | 39% | 1015 hPa | 0 mm | - | 643 W/m² | - |
| 1777840538 | 20° C | 39% | 1015.5 hPa | 0 mm | - | 765 W/m² | - |
| 1777837519 | 19.44° C | 39% | 1016.6 hPa | 0 mm | - | 887 W/m² | - |
| 1777833318 | 18.33° C | 41% | 1017.7 hPa | 0 mm | - | 987 W/m² | - |
| 1777832117 | 18.89° C | 40% | 1017.8 hPa | 0 mm | - | 995 W/m² | - |
| 1777831517 | 18.33° C | 40% | 1018 hPa | 0 mm | - | 1001 W/m² | - |
| 1777821336 | 15° C | 53% | 1019.2 hPa | 0 mm | - | 744 W/m² | - |
| 1777820716 | 14.44° C | 51% | 1019.2 hPa | 0 mm | - | 717 W/m² | - |
| 1777818917 | 13.89° C | 58% | 1019 hPa | 0 mm | - | 626 W/m² | - |
| 1777814718 | 10.56° C | 81% | 1019.8 hPa | 0 mm | - | 333 W/m² | - |
| 1777814118 | 10° C | 85% | 1019.8 hPa | 0 mm | - | 286 W/m² | - |
| 1777812338 | 8.33° C | 89% | 1019.7 hPa | 0 mm | - | 227 W/m² | - |
| 1777808722 | 5.56° C | 96% | 1020.2 hPa | 0 mm | - | 70 W/m² | - |
| 1777802718 | 5° C | 97% | 1020.1 hPa | 0 mm | - | 0 W/m² | - |
| 1777802117 | 5° C | 97% | 1019.8 hPa | 0 mm | - | 0 W/m² | - |
| 1777798519 | 5.56° C | 96% | 1019.8 hPa | 0 mm | - | 0 W/m² | - |
| 1777792517 | 6.11° C | 96% | 1020.1 hPa | 0 mm | - | 0 W/m² | - |
| 1777780517 | 8.33° C | 88% | 1020 hPa | 0 mm | - | 0 W/m² | - |
| 1777776318 | 10° C | 75% | 1020.1 hPa | 0 mm | - | 0 W/m² | - |
| 1777773316 | 11.11° C | 69% | 1019.4 hPa | 0 mm | - | 0 W/m² | - |
| 1777772738 | 11.67° C | 68% | 1019.2 hPa | 0 mm | - | 0 W/m² | - |
| 1777769116 | 12.78° C | 59% | 1018.8 hPa | 0 mm | - | 5 W/m² | - |
| 1777767917 | 12.78° C | 59% | 1018.3 hPa | 0 mm | - | 24 W/m² | - |
| 1777767317 | 13.33° C | 62% | 1018.4 hPa | 0 mm | - | 40 W/m² | - |
| 1777765517 | 13.33° C | 62% | 1017.9 hPa | 0 mm | - | 109 W/m² | - |
* Rain latest hour (hover to see other rain measurements)
** Current wind speed in m/s (hover to see current wind gust speed)